createdAt,value
2018-12-20T00:00:37.093Z,13.47
2018-12-20T00:03:04.727Z,14.20
2018-12-20T00:05:32.302Z,13.40
2018-12-20T00:07:59.758Z,14.60
2018-12-20T00:10:30.980Z,14.30
2018-12-20T00:12:58.462Z,15.00
2018-12-20T00:15:25.911Z,13.60
2018-12-20T00:17:53.481Z,12.87
2018-12-20T00:20:24.514Z,13.17
2018-12-20T00:22:52.142Z,12.70
2018-12-20T00:25:19.657Z,15.97
2018-12-20T00:27:47.217Z,15.87
2018-12-20T00:30:18.634Z,18.40
2018-12-20T00:32:46.147Z,14.77
2018-12-20T00:35:13.608Z,13.83
2018-12-20T00:37:41.205Z,17.93
2018-12-20T00:40:12.548Z,15.80
2018-12-20T00:42:40.078Z,14.60
2018-12-20T00:45:09.274Z,14.70
2018-12-20T00:47:38.020Z,13.50
2018-12-20T00:50:11.851Z,11.43
2018-12-20T00:52:39.566Z,11.10
2018-12-20T00:55:12.513Z,13.03
2018-12-20T00:57:40.969Z,11.90
2018-12-20T01:00:13.266Z,13.07
2018-12-20T01:02:40.856Z,14.20
2018-12-20T01:05:08.438Z,9.63
2018-12-20T01:07:35.959Z,13.43
2018-12-20T01:10:06.895Z,9.33
2018-12-20T01:12:34.571Z,11.00
2018-12-20T01:15:02.063Z,9.00
2018-12-20T01:17:31.438Z,9.83
2018-12-20T01:20:01.848Z,9.77
2018-12-20T01:22:29.422Z,8.40
2018-12-20T01:24:57.031Z,12.17
2018-12-20T01:27:24.571Z,10.70
2018-12-20T01:29:55.573Z,9.63
2018-12-20T01:32:23.096Z,8.73
2018-12-20T01:34:50.572Z,9.57
2018-12-20T01:37:18.254Z,9.53
2018-12-20T01:39:49.323Z,9.93
2018-12-20T01:42:16.781Z,7.30
2018-12-20T01:44:44.456Z,8.20
2018-12-20T01:47:11.984Z,7.57
2018-12-20T01:49:42.548Z,7.30
2018-12-20T01:52:10.246Z,9.43
2018-12-20T01:54:37.911Z,7.63
2018-12-20T01:57:05.391Z,10.00
2018-12-20T01:59:36.497Z,7.03
2018-12-20T02:02:04.024Z,9.00
2018-12-20T02:04:31.481Z,8.93
2018-12-20T02:06:59.206Z,7.30
2018-12-20T02:09:30.404Z,6.50
2018-12-20T02:11:57.904Z,6.20
2018-12-20T02:14:28.513Z,4.93
2018-12-20T02:16:56.160Z,6.57
2018-12-20T02:19:28.390Z,6.90
2018-12-20T02:21:55.965Z,5.77
2018-12-20T02:24:23.483Z,4.93
2018-12-20T02:26:51.175Z,7.33
2018-12-20T02:29:22.219Z,5.57
2018-12-20T02:31:49.689Z,5.10
2018-12-20T02:34:17.254Z,7.00
2018-12-20T02:36:44.734Z,4.17
2018-12-20T02:39:12.937Z,4.60
2018-12-20T02:41:40.478Z,5.53
2018-12-20T02:44:07.982Z,5.50
2018-12-20T02:46:35.579Z,5.53
2018-12-20T02:49:03.202Z,6.27
2018-12-20T02:51:33.785Z,4.77
2018-12-20T02:54:01.525Z,5.53
2018-12-20T02:56:29.062Z,5.23
2018-12-20T02:58:56.634Z,5.90
2018-12-20T03:01:27.446Z,3.80
2018-12-20T03:03:54.910Z,3.10
2018-12-20T03:06:22.454Z,3.20
2018-12-20T03:08:49.997Z,4.70
2018-12-20T03:11:21.291Z,5.87
2018-12-20T03:13:49.012Z,3.80
2018-12-20T03:16:16.586Z,3.10
2018-12-20T03:18:44.273Z,3.17
2018-12-20T03:21:14.865Z,4.57
2018-12-20T03:23:42.386Z,4.07
2018-12-20T03:26:09.822Z,4.03
2018-12-20T03:28:37.399Z,5.37
2018-12-20T03:31:08.382Z,3.77
2018-12-20T03:33:35.830Z,2.80
2018-12-20T03:36:03.474Z,5.13
2018-12-20T03:38:31.011Z,4.17
2018-12-20T03:41:02.034Z,4.40
2018-12-20T03:43:29.564Z,4.57
2018-12-20T03:45:57.066Z,2.50
2018-12-20T03:48:24.767Z,3.30
2018-12-20T03:50:58.986Z,2.43
2018-12-20T03:53:32.431Z,3.10
2018-12-20T03:56:05.771Z,2.80
2018-12-20T03:58:37.396Z,3.17
2018-12-20T04:01:07.955Z,5.10
2018-12-20T04:03:35.418Z,2.67
2018-12-20T04:06:03.250Z,3.57
2018-12-20T04:08:30.910Z,3.17
2018-12-20T04:11:01.919Z,2.40
2018-12-20T04:13:29.386Z,2.93
2018-12-20T04:15:56.822Z,3.10
2018-12-20T04:18:24.393Z,4.97
2018-12-20T04:20:55.846Z,2.53
2018-12-20T04:23:23.331Z,2.83
2018-12-20T04:25:50.783Z,2.77
2018-12-20T04:28:18.479Z,2.53
2018-12-20T04:30:49.754Z,2.97
2018-12-20T04:33:17.216Z,2.73
2018-12-20T04:35:44.875Z,2.57
2018-12-20T04:38:12.486Z,2.37
2018-12-20T04:40:43.326Z,3.13
2018-12-20T04:43:11.127Z,1.30
2018-12-20T04:45:46.838Z,5.03
2018-12-20T04:48:15.598Z,1.40
2018-12-20T04:50:46.334Z,1.60
2018-12-20T04:53:13.824Z,1.93
2018-12-20T04:55:41.499Z,3.23
2018-12-20T04:58:09.177Z,1.63
2018-12-20T05:00:40.820Z,2.30
2018-12-20T05:03:08.620Z,1.43
2018-12-20T05:05:36.114Z,1.73
2018-12-20T05:08:03.607Z,1.93
2018-12-20T05:10:34.291Z,2.13
2018-12-20T05:13:01.933Z,2.50
2018-12-20T05:15:29.457Z,2.53
2018-12-20T05:17:57.318Z,2.93
2018-12-20T05:20:28.299Z,2.00
2018-12-20T05:22:55.782Z,1.77
2018-12-20T05:25:23.272Z,2.07
2018-12-20T05:27:51.018Z,2.20
2018-12-20T05:30:22.183Z,2.30
2018-12-20T05:32:49.762Z,1.57
2018-12-20T05:35:17.265Z,2.70
2018-12-20T05:37:44.861Z,1.60
2018-12-20T05:40:16.184Z,2.37
2018-12-20T05:42:43.988Z,1.30
2018-12-20T05:45:11.812Z,1.40
2018-12-20T05:47:39.475Z,2.87
2018-12-20T05:50:10.248Z,2.17
2018-12-20T05:52:37.809Z,1.47
2018-12-20T05:55:05.611Z,2.27
2018-12-20T05:57:33.078Z,3.43
2018-12-20T06:00:06.945Z,3.90
2018-12-20T06:02:34.632Z,2.27
2018-12-20T06:05:02.327Z,1.83
2018-12-20T06:07:29.972Z,1.93
2018-12-20T06:10:00.416Z,4.70
2018-12-20T06:12:27.850Z,1.97
2018-12-20T06:14:55.645Z,4.43
2018-12-20T06:17:23.264Z,2.93
2018-12-20T06:19:54.293Z,3.97
2018-12-20T06:22:21.766Z,2.93
2018-12-20T06:24:49.306Z,2.60
2018-12-20T06:27:16.736Z,2.97
2018-12-20T06:29:47.215Z,4.77
2018-12-20T06:32:14.667Z,3.80
2018-12-20T06:34:42.126Z,4.97
2018-12-20T06:37:09.614Z,5.17
2018-12-20T06:39:40.371Z,4.97
2018-12-20T06:42:07.798Z,2.23
2018-12-20T06:44:35.234Z,4.07
2018-12-20T06:47:02.669Z,2.37
2018-12-20T06:49:33.470Z,4.20
2018-12-20T06:52:00.930Z,3.63
2018-12-20T06:54:28.371Z,5.70
2018-12-20T06:56:55.793Z,3.50
2018-12-20T06:59:27.104Z,2.07
2018-12-20T07:01:54.547Z,3.40
2018-12-20T07:04:21.979Z,4.03
2018-12-20T07:06:49.415Z,2.00
2018-12-20T07:09:17.126Z,4.33
2018-12-20T07:11:44.555Z,3.50
2018-12-20T07:14:11.995Z,3.10
2018-12-20T07:16:39.454Z,4.43
2018-12-20T07:19:07.036Z,3.30
2018-12-20T07:21:37.604Z,4.20
2018-12-20T07:24:05.017Z,3.97
2018-12-20T07:26:32.452Z,4.40
2018-12-20T07:28:59.911Z,2.40
2018-12-20T07:31:30.663Z,5.00
2018-12-20T07:33:58.119Z,5.43
2018-12-20T07:36:25.552Z,4.50
2018-12-20T07:38:53.015Z,4.20
2018-12-20T07:41:23.504Z,3.13
2018-12-20T07:43:50.947Z,3.60
2018-12-20T07:46:18.521Z,3.27
2018-12-20T07:48:45.961Z,5.93
2018-12-20T07:51:16.745Z,3.57
2018-12-20T07:53:44.203Z,6.13
2018-12-20T07:56:11.665Z,4.50
2018-12-20T07:58:39.206Z,3.37
2018-12-20T08:01:09.715Z,5.10
2018-12-20T08:03:37.133Z,5.47
2018-12-20T08:06:04.603Z,5.67
2018-12-20T08:08:32.037Z,3.67
2018-12-20T08:11:02.706Z,7.93
2018-12-20T08:13:30.183Z,2.63
2018-12-20T08:15:57.619Z,8.20
2018-12-20T08:18:25.042Z,5.07
2018-12-20T08:20:56.265Z,3.43
2018-12-20T08:23:23.672Z,3.50
2018-12-20T08:25:51.138Z,3.40
2018-12-20T08:28:18.558Z,2.80
2018-12-20T08:30:49.571Z,8.30
2018-12-20T08:33:17.006Z,3.33
2018-12-20T08:35:44.490Z,6.37
2018-12-20T08:38:11.934Z,5.17
2018-12-20T08:40:42.271Z,4.73
2018-12-20T08:43:09.726Z,3.03
2018-12-20T08:45:37.197Z,3.00
2018-12-20T08:48:04.626Z,7.63
2018-12-20T08:50:35.580Z,4.60
2018-12-20T08:53:03.027Z,8.53
2018-12-20T08:55:30.479Z,3.43
2018-12-20T08:57:57.921Z,6.83
2018-12-20T09:00:28.490Z,3.53
2018-12-20T09:02:55.954Z,3.97
2018-12-20T09:05:23.396Z,3.97
2018-12-20T09:07:50.833Z,4.90
2018-12-20T09:10:21.876Z,3.33
2018-12-20T09:12:49.352Z,6.27
2018-12-20T09:15:16.798Z,6.70
2018-12-20T09:17:44.226Z,4.40
2018-12-20T09:20:14.716Z,6.00
2018-12-20T09:22:42.178Z,6.67
2018-12-20T09:25:09.668Z,2.63
2018-12-20T09:27:37.107Z,2.00
2018-12-20T09:30:07.859Z,3.17
2018-12-20T09:32:35.276Z,5.27
2018-12-20T09:35:02.737Z,4.90
2018-12-20T09:37:30.166Z,3.50
2018-12-20T09:40:00.854Z,3.97
2018-12-20T09:42:28.274Z,4.43
2018-12-20T09:44:55.732Z,3.20
2018-12-20T09:47:28.831Z,6.30
2018-12-20T09:49:59.971Z,5.80
2018-12-20T09:52:27.382Z,5.73
2018-12-20T09:54:54.838Z,2.83
2018-12-20T09:57:22.266Z,5.93
2018-12-20T09:59:52.948Z,6.37
2018-12-20T10:02:20.386Z,3.57
2018-12-20T10:04:47.819Z,2.60
2018-12-20T10:07:15.252Z,3.73
2018-12-20T10:09:45.722Z,2.80
2018-12-20T10:12:13.149Z,3.50
2018-12-20T10:14:40.589Z,5.43
2018-12-20T10:17:08.103Z,4.10
2018-12-20T10:19:38.639Z,4.47
2018-12-20T10:22:06.093Z,3.10
2018-12-20T10:24:33.536Z,2.63
2018-12-20T10:27:02.272Z,4.30
2018-12-20T10:29:33.507Z,2.23
2018-12-20T10:32:01.033Z,3.93
2018-12-20T10:34:28.484Z,4.07
2018-12-20T10:36:56.024Z,2.20
2018-12-20T10:39:26.588Z,4.23
2018-12-20T10:41:54.070Z,2.27
2018-12-20T10:44:21.503Z,2.77
2018-12-20T10:46:49.064Z,1.57
2018-12-20T10:49:16.734Z,3.17
2018-12-20T10:51:44.165Z,2.43
2018-12-20T10:54:11.595Z,3.00
2018-12-20T10:56:39.025Z,6.40
2018-12-20T10:59:06.475Z,3.53
2018-12-20T11:01:42.708Z,2.60
2018-12-20T11:04:15.709Z,1.07
2018-12-20T11:06:48.904Z,1.93
2018-12-20T11:09:22.001Z,2.40
2018-12-20T11:11:55.079Z,1.93
2018-12-20T11:14:22.537Z,3.37
2018-12-20T11:16:49.998Z,2.87
2018-12-20T11:19:18.275Z,1.80
2018-12-20T11:21:45.827Z,3.73
2018-12-20T11:24:13.264Z,3.50
2018-12-20T11:26:40.722Z,4.13
2018-12-20T11:29:08.166Z,2.57
2018-12-20T11:31:35.622Z,2.57
2018-12-20T11:34:03.140Z,4.43
2018-12-20T11:36:30.630Z,4.80
2018-12-20T11:38:58.055Z,1.60
2018-12-20T11:41:29.355Z,1.80
2018-12-20T11:43:56.803Z,3.73
2018-12-20T11:46:24.354Z,3.17
2018-12-20T11:48:51.821Z,3.23
2018-12-20T11:51:22.606Z,5.20
2018-12-20T11:53:50.108Z,2.33
2018-12-20T11:56:17.574Z,2.73
2018-12-20T11:58:45.059Z,2.10
2018-12-20T12:01:15.891Z,1.77
2018-12-20T12:03:43.340Z,2.40
2018-12-20T12:06:10.779Z,2.97
2018-12-20T12:08:38.206Z,4.13
2018-12-20T12:11:08.561Z,4.27
2018-12-20T12:13:36.037Z,5.03
2018-12-20T12:16:03.563Z,3.33
2018-12-20T12:18:30.984Z,3.43
2018-12-20T12:21:02.162Z,4.23
2018-12-20T12:23:29.591Z,3.13
2018-12-20T12:25:57.100Z,6.23
2018-12-20T12:28:24.538Z,4.53
2018-12-20T12:30:54.903Z,4.17
2018-12-20T12:33:22.358Z,4.87
2018-12-20T12:35:49.836Z,3.00
2018-12-20T12:38:17.324Z,4.47
2018-12-20T12:40:47.983Z,6.47
2018-12-20T12:43:21.596Z,4.67
2018-12-20T12:45:49.221Z,7.40
2018-12-20T12:48:16.682Z,4.23
2018-12-20T12:50:47.163Z,5.37
2018-12-20T12:53:14.614Z,5.83
2018-12-20T12:55:42.035Z,6.20
2018-12-20T12:58:09.501Z,8.47
2018-12-20T13:00:40.288Z,5.00
2018-12-20T13:03:07.739Z,7.53
2018-12-20T13:05:35.202Z,5.37
2018-12-20T13:08:02.673Z,4.10
2018-12-20T13:10:33.367Z,7.73
2018-12-20T13:13:00.814Z,4.80
2018-12-20T13:15:28.282Z,11.00
2018-12-20T13:17:55.788Z,2.57
2018-12-20T13:20:26.267Z,5.00
2018-12-20T13:22:53.825Z,3.93
2018-12-20T13:25:21.261Z,7.20
2018-12-20T13:27:48.729Z,8.63
2018-12-20T13:30:19.655Z,4.13
2018-12-20T13:32:47.130Z,6.97
2018-12-20T13:35:14.571Z,6.20
2018-12-20T13:37:42.047Z,4.33
2018-12-20T13:40:12.741Z,2.40
2018-12-20T13:42:40.210Z,6.73
2018-12-20T13:45:07.684Z,2.67
2018-12-20T13:47:35.202Z,7.10
2018-12-20T13:50:06.858Z,3.53
2018-12-20T13:52:34.321Z,5.40
2018-12-20T13:55:01.778Z,5.60
2018-12-20T13:57:29.283Z,5.00
2018-12-20T13:59:59.897Z,3.60
2018-12-20T14:02:27.366Z,3.67
2018-12-20T14:04:54.831Z,3.30
2018-12-20T14:07:22.282Z,3.33
2018-12-20T14:09:52.865Z,4.90
2018-12-20T14:12:20.286Z,3.70
2018-12-20T14:14:47.742Z,3.67
2018-12-20T14:17:15.187Z,3.43
2018-12-20T14:19:46.167Z,6.20
2018-12-20T14:22:13.624Z,3.40
2018-12-20T14:24:41.090Z,3.07
2018-12-20T14:27:08.514Z,3.83
2018-12-20T14:29:38.906Z,5.17
2018-12-20T14:32:06.791Z,5.10
2018-12-20T14:34:34.333Z,3.53
2018-12-20T14:37:01.781Z,3.43
2018-12-20T14:39:32.236Z,3.87
2018-12-20T14:41:59.695Z,5.90
2018-12-20T14:44:27.163Z,3.33
2018-12-20T14:46:54.605Z,4.63
2018-12-20T14:49:25.869Z,4.27
2018-12-20T14:51:53.377Z,2.97
2018-12-20T14:54:20.866Z,3.97
2018-12-20T14:56:48.289Z,2.63
2018-12-20T14:59:15.779Z,2.40
2018-12-20T15:01:43.235Z,5.03
2018-12-20T15:04:10.739Z,1.43
2018-12-20T15:06:38.259Z,3.53
2018-12-20T15:09:06.794Z,2.03
2018-12-20T15:11:37.363Z,3.33
2018-12-20T15:14:04.824Z,4.63
2018-12-20T15:16:32.257Z,5.03
2018-12-20T15:18:59.713Z,3.17
2018-12-20T15:21:30.475Z,4.40
2018-12-20T15:23:57.944Z,3.03
2018-12-20T15:26:25.384Z,1.50
2018-12-20T15:28:52.846Z,1.33
2018-12-20T15:31:23.351Z,1.50
2018-12-20T15:33:50.796Z,4.40
2018-12-20T15:36:18.231Z,4.27
2018-12-20T15:38:45.745Z,1.93
2018-12-20T15:41:16.449Z,2.10
2018-12-20T15:43:43.898Z,3.20
2018-12-20T15:46:11.374Z,3.40
2018-12-20T15:48:38.901Z,2.50
2018-12-20T15:51:09.988Z,2.23
2018-12-20T15:53:37.422Z,1.97
2018-12-20T15:56:04.877Z,4.27
2018-12-20T15:58:32.308Z,3.10
2018-12-20T16:01:03.228Z,2.90
2018-12-20T16:03:30.655Z,4.47
2018-12-20T16:05:58.105Z,3.47
2018-12-20T16:08:25.525Z,3.80
2018-12-20T16:10:56.304Z,3.33
2018-12-20T16:13:23.721Z,2.73
2018-12-20T16:15:51.191Z,4.07
2018-12-20T16:18:18.626Z,3.43
2018-12-20T16:20:49.735Z,4.40
2018-12-20T16:23:17.194Z,6.27
2018-12-20T16:25:44.709Z,5.37
2018-12-20T16:28:12.150Z,6.93
2018-12-20T16:30:43.232Z,6.57
2018-12-20T16:33:10.709Z,7.10
2018-12-20T16:35:38.163Z,6.57
2018-12-20T16:38:05.589Z,5.53
2018-12-20T16:40:36.080Z,5.40
2018-12-20T16:43:03.507Z,7.70
2018-12-20T16:45:30.974Z,6.33
2018-12-20T16:47:58.423Z,5.77
2018-12-20T16:50:30.228Z,6.33
2018-12-20T16:52:57.663Z,3.33
2018-12-20T16:55:25.125Z,6.13
2018-12-20T16:57:52.573Z,4.27
2018-12-20T17:00:23.339Z,5.57
2018-12-20T17:02:50.772Z,6.30
2018-12-20T17:05:18.223Z,4.87
2018-12-20T17:07:45.690Z,10.27
2018-12-20T17:10:16.441Z,8.00
2018-12-20T17:12:45.176Z,7.07
2018-12-20T17:15:12.770Z,10.23
2018-12-20T17:17:40.194Z,4.80
2018-12-20T17:20:10.905Z,8.47
2018-12-20T17:22:38.511Z,6.53
2018-12-20T17:25:06.022Z,5.53
2018-12-20T17:27:33.478Z,6.97
2018-12-20T17:30:05.766Z,3.43
2018-12-20T17:32:33.191Z,6.03
2018-12-20T17:35:00.632Z,4.13
2018-12-20T17:37:28.067Z,8.23
2018-12-20T17:39:59.147Z,5.53
2018-12-20T17:42:26.584Z,4.67
2018-12-20T17:44:54.026Z,6.17
2018-12-20T17:47:21.481Z,9.07
2018-12-20T17:49:52.239Z,7.53
2018-12-20T17:52:19.702Z,4.67
2018-12-20T17:54:47.126Z,7.83
2018-12-20T17:57:14.582Z,5.77
2018-12-20T17:59:45.302Z,5.70
2018-12-20T18:02:12.790Z,3.67
2018-12-20T18:04:40.242Z,2.93
2018-12-20T18:07:07.690Z,5.67
2018-12-20T18:09:38.283Z,7.77
2018-12-20T18:12:05.793Z,3.73
2018-12-20T18:14:34.235Z,3.23
2018-12-20T18:17:01.678Z,3.43
2018-12-20T18:19:39.002Z,2.83
2018-12-20T18:22:02.943Z,2.73
2018-12-20T18:24:30.377Z,4.13
2018-12-20T18:26:57.816Z,3.33
2018-12-20T18:29:28.670Z,5.77
2018-12-20T18:31:56.167Z,5.27
2018-12-20T18:34:23.655Z,5.03
2018-12-20T18:36:51.107Z,6.53
2018-12-20T18:39:18.535Z,5.00
2018-12-20T18:41:45.982Z,5.90
2018-12-20T18:44:13.405Z,3.87
2018-12-20T18:46:40.931Z,4.50
2018-12-20T18:49:08.622Z,3.70
2018-12-20T18:51:36.045Z,7.17
2018-12-20T18:54:03.519Z,4.03
2018-12-20T18:56:30.974Z,5.17
2018-12-20T18:58:58.406Z,4.20
2018-12-20T19:01:29.070Z,5.77
2018-12-20T19:03:56.508Z,6.87
2018-12-20T19:06:23.995Z,5.57
2018-12-20T19:08:51.427Z,6.47
2018-12-20T19:11:22.213Z,4.20
2018-12-20T19:13:49.711Z,5.47
2018-12-20T19:16:17.179Z,3.13
2018-12-20T19:18:44.614Z,9.70
2018-12-20T19:21:15.211Z,6.77
2018-12-20T19:23:42.664Z,6.53
2018-12-20T19:26:10.275Z,7.07
2018-12-20T19:28:37.711Z,5.67
2018-12-20T19:31:08.035Z,5.93
2018-12-20T19:33:35.476Z,3.47
2018-12-20T19:36:02.938Z,5.40
2018-12-20T19:38:30.384Z,4.67
2018-12-20T19:41:01.125Z,3.67
2018-12-20T19:43:28.736Z,4.87
2018-12-20T19:45:56.163Z,5.67
2018-12-20T19:48:23.637Z,5.50
2018-12-20T19:50:54.179Z,6.83
2018-12-20T19:53:21.639Z,4.37
2018-12-20T19:55:49.082Z,6.53
2018-12-20T19:58:16.566Z,4.50
2018-12-20T20:00:47.353Z,7.20
2018-12-20T20:03:14.858Z,6.20
2018-12-20T20:05:42.293Z,6.90
2018-12-20T20:08:09.771Z,12.40
2018-12-20T20:10:40.783Z,8.63
2018-12-20T20:13:08.227Z,5.60
2018-12-20T20:15:35.699Z,6.93
2018-12-20T20:18:03.183Z,7.60
2018-12-20T20:20:33.578Z,4.13
2018-12-20T20:23:01.071Z,6.80
2018-12-20T20:25:28.499Z,6.80
2018-12-20T20:27:55.953Z,6.53
2018-12-20T20:30:26.315Z,5.83
2018-12-20T20:32:53.811Z,8.30
2018-12-20T20:35:21.294Z,6.13
2018-12-20T20:37:48.739Z,6.57
2018-12-20T20:40:19.318Z,6.57
2018-12-20T20:42:46.803Z,8.67
2018-12-20T20:45:14.265Z,8.23
2018-12-20T20:47:41.712Z,8.60
2018-12-20T20:50:12.361Z,5.73
2018-12-20T20:52:39.804Z,7.07
2018-12-20T20:55:07.272Z,6.10
2018-12-20T20:57:34.855Z,5.27
2018-12-20T21:00:08.924Z,5.57
2018-12-20T21:02:36.381Z,10.33
2018-12-20T21:05:04.606Z,6.33
2018-12-20T21:07:32.081Z,11.80
2018-12-20T21:10:04.510Z,6.03
2018-12-20T21:12:31.969Z,10.27
2018-12-20T21:14:59.445Z,8.03
2018-12-20T21:17:26.906Z,7.37
2018-12-20T21:19:57.305Z,8.57
2018-12-20T21:22:24.842Z,8.83
2018-12-20T21:24:52.271Z,9.00
2018-12-20T21:27:19.706Z,7.47
2018-12-20T21:29:50.596Z,5.50
2018-12-20T21:32:18.035Z,5.13
2018-12-20T21:34:45.491Z,9.43
2018-12-20T21:37:12.969Z,7.07
2018-12-20T21:39:43.569Z,8.90
2018-12-20T21:42:11.165Z,7.97
2018-12-20T21:44:38.670Z,8.43
2018-12-20T21:47:06.095Z,9.10
2018-12-20T21:49:37.299Z,6.13
2018-12-20T21:52:04.775Z,5.57
2018-12-20T21:54:32.214Z,5.87
2018-12-20T21:56:59.647Z,6.67
2018-12-20T21:59:30.044Z,8.33
2018-12-20T22:01:57.469Z,7.37
2018-12-20T22:04:24.911Z,6.30
2018-12-20T22:06:52.341Z,7.13
2018-12-20T22:09:19.898Z,6.80
2018-12-20T22:11:47.326Z,8.13
2018-12-20T22:14:14.819Z,5.73
2018-12-20T22:16:42.244Z,6.17
2018-12-20T22:19:10.156Z,6.63
2018-12-20T22:21:37.642Z,5.30
2018-12-20T22:24:05.087Z,5.20
2018-12-20T22:26:32.505Z,6.87
2018-12-20T22:28:59.963Z,7.53
2018-12-20T22:31:33.166Z,6.83
2018-12-20T22:34:00.631Z,5.13
2018-12-20T22:36:28.068Z,7.17
2018-12-20T22:38:55.523Z,6.83
2018-12-20T22:41:26.366Z,8.87
2018-12-20T22:43:53.823Z,7.63
2018-12-20T22:46:21.269Z,8.17
2018-12-20T22:48:48.699Z,8.27
2018-12-20T22:51:19.227Z,7.47
2018-12-20T22:53:46.671Z,6.20
2018-12-20T22:56:14.116Z,5.53
2018-12-20T22:58:41.583Z,9.83
2018-12-20T23:01:12.789Z,4.80
2018-12-20T23:03:40.291Z,6.10
2018-12-20T23:06:07.752Z,5.17
2018-12-20T23:08:35.303Z,8.00
2018-12-20T23:11:06.463Z,6.33
2018-12-20T23:13:33.928Z,5.67
2018-12-20T23:16:01.360Z,6.00
2018-12-20T23:18:28.844Z,9.67
2018-12-20T23:21:04.894Z,4.53
2018-12-20T23:23:28.852Z,8.47
2018-12-20T23:25:56.296Z,6.13
2018-12-20T23:28:23.763Z,7.50
2018-12-20T23:30:54.611Z,6.07
2018-12-20T23:33:22.056Z,8.67
2018-12-20T23:35:49.497Z,9.97
2018-12-20T23:38:16.927Z,8.40
2018-12-20T23:40:47.395Z,6.27
2018-12-20T23:43:14.962Z,3.70
2018-12-20T23:45:42.465Z,6.60
2018-12-20T23:48:09.873Z,5.37
2018-12-20T23:50:40.330Z,5.93
2018-12-20T23:53:07.843Z,8.47
2018-12-20T23:55:35.354Z,12.63
2018-12-20T23:58:02.779Z,6.77
